sensor_id;sensor_type;location;lat;lon;timestamp;P1;durP1;ratioP1;P2;durP2;ratioP2
21820;SDS011;11073;48.586;12.066;2022-07-26T00:01:28;8.70;;;6.20;;
21820;SDS011;11073;48.586;12.066;2022-07-26T00:03:58;9.93;;;6.88;;
21820;SDS011;11073;48.586;12.066;2022-07-26T00:06:28;7.10;;;6.40;;
21820;SDS011;11073;48.586;12.066;2022-07-26T00:08:57;7.22;;;6.53;;
21820;SDS011;11073;48.586;12.066;2022-07-26T00:11:26;6.95;;;6.25;;
21820;SDS011;11073;48.586;12.066;2022-07-26T00:13:56;8.55;;;6.30;;
21820;SDS011;11073;48.586;12.066;2022-07-26T00:16:25;8.15;;;6.30;;
21820;SDS011;11073;48.586;12.066;2022-07-26T00:18:54;7.20;;;5.93;;
21820;SDS011;11073;48.586;12.066;2022-07-26T00:21:22;6.93;;;5.93;;
21820;SDS011;11073;48.586;12.066;2022-07-26T00:23:52;7.35;;;6.05;;
21820;SDS011;11073;48.586;12.066;2022-07-26T00:26:21;8.65;;;5.97;;
21820;SDS011;11073;48.586;12.066;2022-07-26T00:28:50;6.60;;;5.65;;
21820;SDS011;11073;48.586;12.066;2022-07-26T00:31:19;7.65;;;6.22;;
21820;SDS011;11073;48.586;12.066;2022-07-26T00:33:48;7.47;;;5.80;;
21820;SDS011;11073;48.586;12.066;2022-07-26T00:36:17;8.05;;;5.97;;
21820;SDS011;11073;48.586;12.066;2022-07-26T00:38:46;6.70;;;5.70;;
21820;SDS011;11073;48.586;12.066;2022-07-26T00:41:16;7.47;;;5.32;;
21820;SDS011;11073;48.586;12.066;2022-07-26T00:43:54;7.03;;;5.30;;
21820;SDS011;11073;48.586;12.066;2022-07-26T00:46:24;6.78;;;5.10;;
21820;SDS011;11073;48.586;12.066;2022-07-26T00:48:53;7.13;;;5.22;;
21820;SDS011;11073;48.586;12.066;2022-07-26T00:51:22;6.63;;;4.93;;
21820;SDS011;11073;48.586;12.066;2022-07-26T00:53:51;6.57;;;4.60;;
21820;SDS011;11073;48.586;12.066;2022-07-26T00:56:21;7.53;;;4.75;;
21820;SDS011;11073;48.586;12.066;2022-07-26T00:58:51;5.45;;;4.47;;
21820;SDS011;11073;48.586;12.066;2022-07-26T01:01:19;6.88;;;4.70;;
21820;SDS011;11073;48.586;12.066;2022-07-26T01:03:49;5.55;;;4.22;;
21820;SDS011;11073;48.586;12.066;2022-07-26T01:06:19;5.63;;;4.30;;
21820;SDS011;11073;48.586;12.066;2022-07-26T01:08:53;5.28;;;4.32;;
21820;SDS011;11073;48.586;12.066;2022-07-26T01:11:23;7.45;;;4.30;;
21820;SDS011;11073;48.586;12.066;2022-07-26T01:13:52;5.80;;;3.67;;
21820;SDS011;11073;48.586;12.066;2022-07-26T01:16:21;5.65;;;4.18;;
21820;SDS011;11073;48.586;12.066;2022-07-26T01:18:50;6.35;;;4.35;;
21820;SDS011;11073;48.586;12.066;2022-07-26T01:21:19;6.55;;;4.03;;
21820;SDS011;11073;48.586;12.066;2022-07-26T01:23:50;5.90;;;3.80;;
21820;SDS011;11073;48.586;12.066;2022-07-26T01:26:19;7.55;;;4.35;;
21820;SDS011;11073;48.586;12.066;2022-07-26T01:28:52;6.90;;;4.13;;
21820;SDS011;11073;48.586;12.066;2022-07-26T01:31:20;6.63;;;4.55;;
21820;SDS011;11073;48.586;12.066;2022-07-26T01:33:50;5.32;;;3.85;;
21820;SDS011;11073;48.586;12.066;2022-07-26T01:36:19;4.25;;;3.58;;
21820;SDS011;11073;48.586;12.066;2022-07-26T01:38:48;8.10;;;4.43;;
21820;SDS011;11073;48.586;12.066;2022-07-26T01:41:18;4.90;;;3.85;;
21820;SDS011;11073;48.586;12.066;2022-07-26T01:44:04;6.00;;;3.90;;
21820;SDS011;11073;48.586;12.066;2022-07-26T01:46:34;5.40;;;4.25;;
21820;SDS011;11073;48.586;12.066;2022-07-26T01:49:03;6.38;;;4.25;;
21820;SDS011;11073;48.586;12.066;2022-07-26T01:51:34;5.35;;;3.55;;
21820;SDS011;11073;48.586;12.066;2022-07-26T01:54:02;4.18;;;3.47;;
21820;SDS011;11073;48.586;12.066;2022-07-26T01:56:33;4.50;;;4.10;;
21820;SDS011;11073;48.586;12.066;2022-07-26T01:59:02;4.38;;;3.97;;
21820;SDS011;11073;48.586;12.066;2022-07-26T02:01:31;5.13;;;3.88;;
21820;SDS011;11073;48.586;12.066;2022-07-26T02:04:05;4.35;;;3.80;;
21820;SDS011;11073;48.586;12.066;2022-07-26T02:06:35;5.15;;;4.20;;
21820;SDS011;11073;48.586;12.066;2022-07-26T02:09:03;7.13;;;4.50;;
21820;SDS011;11073;48.586;12.066;2022-07-26T02:11:40;4.85;;;4.35;;
21820;SDS011;11073;48.586;12.066;2022-07-26T02:14:08;7.82;;;4.32;;
21820;SDS011;11073;48.586;12.066;2022-07-26T02:16:52;6.45;;;4.20;;
21820;SDS011;11073;48.586;12.066;2022-07-26T02:19:26;5.10;;;4.55;;
21820;SDS011;11073;48.586;12.066;2022-07-26T02:21:55;7.00;;;4.07;;
21820;SDS011;11073;48.586;12.066;2022-07-26T02:24:25;5.53;;;4.50;;
21820;SDS011;11073;48.586;12.066;2022-07-26T02:26:56;5.38;;;4.20;;
21820;SDS011;11073;48.586;12.066;2022-07-26T02:29:26;5.30;;;4.18;;
21820;SDS011;11073;48.586;12.066;2022-07-26T02:31:55;5.82;;;4.40;;
21820;SDS011;11073;48.586;12.066;2022-07-26T02:34:24;5.43;;;3.95;;
21820;SDS011;11073;48.586;12.066;2022-07-26T02:36:58;7.68;;;4.55;;
21820;SDS011;11073;48.586;12.066;2022-07-26T02:39:27;5.75;;;4.53;;
21820;SDS011;11073;48.586;12.066;2022-07-26T02:41:59;5.78;;;4.55;;
21820;SDS011;11073;48.586;12.066;2022-07-26T02:44:28;6.28;;;4.85;;
21820;SDS011;11073;48.586;12.066;2022-07-26T02:46:57;4.93;;;4.50;;
21820;SDS011;11073;48.586;12.066;2022-07-26T02:49:26;7.32;;;5.43;;
21820;SDS011;11073;48.586;12.066;2022-07-26T02:51:55;5.00;;;4.05;;
21820;SDS011;11073;48.586;12.066;2022-07-26T02:54:24;5.85;;;4.32;;
21820;SDS011;11073;48.586;12.066;2022-07-26T02:56:52;5.13;;;4.30;;
21820;SDS011;11073;48.586;12.066;2022-07-26T02:59:22;6.47;;;4.32;;
21820;SDS011;11073;48.586;12.066;2022-07-26T03:01:51;6.80;;;4.50;;
21820;SDS011;11073;48.586;12.066;2022-07-26T03:04:20;8.20;;;4.72;;
21820;SDS011;11073;48.586;12.066;2022-07-26T03:06:48;8.10;;;5.00;;
21820;SDS011;11073;48.586;12.066;2022-07-26T03:09:18;5.55;;;4.20;;
21820;SDS011;11073;48.586;12.066;2022-07-26T03:11:47;9.20;;;4.70;;
21820;SDS011;11073;48.586;12.066;2022-07-26T03:14:16;6.75;;;5.05;;
21820;SDS011;11073;48.586;12.066;2022-07-26T03:16:46;6.90;;;5.15;;
21820;SDS011;11073;48.586;12.066;2022-07-26T03:19:29;6.75;;;4.90;;
21820;SDS011;11073;48.586;12.066;2022-07-26T03:21:58;6.28;;;4.57;;
21820;SDS011;11073;48.586;12.066;2022-07-26T03:24:27;10.52;;;5.80;;
21820;SDS011;11073;48.586;12.066;2022-07-26T03:26:55;7.55;;;4.88;;
21820;SDS011;11073;48.586;12.066;2022-07-26T03:29:24;6.47;;;5.40;;
21820;SDS011;11073;48.586;12.066;2022-07-26T03:31:54;7.00;;;5.32;;
21820;SDS011;11073;48.586;12.066;2022-07-26T03:34:23;6.70;;;4.80;;
21820;SDS011;11073;48.586;12.066;2022-07-26T03:36:52;9.90;;;5.38;;
21820;SDS011;11073;48.586;12.066;2022-07-26T03:39:20;6.63;;;4.72;;
21820;SDS011;11073;48.586;12.066;2022-07-26T03:41:51;6.13;;;5.10;;
21820;SDS011;11073;48.586;12.066;2022-07-26T03:44:20;6.55;;;5.07;;
21820;SDS011;11073;48.586;12.066;2022-07-26T03:46:49;9.15;;;5.30;;
21820;SDS011;11073;48.586;12.066;2022-07-26T03:49:19;8.32;;;5.57;;
21820;SDS011;11073;48.586;12.066;2022-07-26T03:51:48;7.68;;;5.45;;
21820;SDS011;11073;48.586;12.066;2022-07-26T03:54:17;7.60;;;5.70;;
21820;SDS011;11073;48.586;12.066;2022-07-26T03:56:45;8.05;;;5.35;;
21820;SDS011;11073;48.586;12.066;2022-07-26T03:59:13;7.55;;;4.45;;
21820;SDS011;11073;48.586;12.066;2022-07-26T04:01:44;6.30;;;5.00;;
21820;SDS011;11073;48.586;12.066;2022-07-26T04:04:14;5.80;;;4.75;;
21820;SDS011;11073;48.586;12.066;2022-07-26T04:06:52;7.53;;;5.63;;
21820;SDS011;11073;48.586;12.066;2022-07-26T04:09:22;8.68;;;5.28;;
21820;SDS011;11073;48.586;12.066;2022-07-26T04:11:51;8.63;;;5.47;;
21820;SDS011;11073;48.586;12.066;2022-07-26T04:14:19;9.23;;;5.40;;
21820;SDS011;11073;48.586;12.066;2022-07-26T04:16:48;9.30;;;5.63;;
21820;SDS011;11073;48.586;12.066;2022-07-26T04:19:18;10.00;;;5.13;;
21820;SDS011;11073;48.586;12.066;2022-07-26T04:21:47;11.20;;;5.93;;
21820;SDS011;11073;48.586;12.066;2022-07-26T04:24:17;7.47;;;5.80;;
21820;SDS011;11073;48.586;12.066;2022-07-26T04:26:51;6.68;;;5.57;;
21820;SDS011;11073;48.586;12.066;2022-07-26T04:29:20;10.40;;;5.57;;
21820;SDS011;11073;48.586;12.066;2022-07-26T04:31:49;7.63;;;5.35;;
21820;SDS011;11073;48.586;12.066;2022-07-26T04:34:18;7.40;;;5.78;;
21820;SDS011;11073;48.586;12.066;2022-07-26T04:36:46;9.30;;;6.18;;
21820;SDS011;11073;48.586;12.066;2022-07-26T04:39:15;8.23;;;5.85;;
21820;SDS011;11073;48.586;12.066;2022-07-26T04:41:52;6.25;;;5.43;;
21820;SDS011;11073;48.586;12.066;2022-07-26T04:44:20;9.05;;;6.00;;
21820;SDS011;11073;48.586;12.066;2022-07-26T04:46:49;8.60;;;6.30;;
21820;SDS011;11073;48.586;12.066;2022-07-26T04:49:18;8.85;;;5.47;;
21820;SDS011;11073;48.586;12.066;2022-07-26T04:51:47;11.40;;;6.13;;
21820;SDS011;11073;48.586;12.066;2022-07-26T04:54:16;8.02;;;5.85;;
21820;SDS011;11073;48.586;12.066;2022-07-26T04:56:47;7.75;;;5.82;;
21820;SDS011;11073;48.586;12.066;2022-07-26T04:59:17;7.65;;;5.60;;
21820;SDS011;11073;48.586;12.066;2022-07-26T05:01:48;8.93;;;5.78;;
21820;SDS011;11073;48.586;12.066;2022-07-26T05:04:16;7.65;;;6.03;;
21820;SDS011;11073;48.586;12.066;2022-07-26T05:06:45;7.70;;;5.68;;
21820;SDS011;11073;48.586;12.066;2022-07-26T05:09:14;7.40;;;5.72;;
21820;SDS011;11073;48.586;12.066;2022-07-26T05:11:43;8.00;;;5.60;;
21820;SDS011;11073;48.586;12.066;2022-07-26T05:14:11;7.45;;;5.20;;
21820;SDS011;11073;48.586;12.066;2022-07-26T05:16:42;7.70;;;5.68;;
21820;SDS011;11073;48.586;12.066;2022-07-26T05:19:12;8.10;;;5.35;;
21820;SDS011;11073;48.586;12.066;2022-07-26T05:21:41;8.38;;;5.22;;
21820;SDS011;11073;48.586;12.066;2022-07-26T05:24:10;7.25;;;5.53;;
21820;SDS011;11073;48.586;12.066;2022-07-26T05:26:39;8.27;;;5.55;;
21820;SDS011;11073;48.586;12.066;2022-07-26T05:29:08;8.95;;;4.97;;
21820;SDS011;11073;48.586;12.066;2022-07-26T05:31:36;7.50;;;5.60;;
21820;SDS011;11073;48.586;12.066;2022-07-26T05:34:06;8.43;;;5.40;;
21820;SDS011;11073;48.586;12.066;2022-07-26T05:36:36;6.28;;;5.13;;
21820;SDS011;11073;48.586;12.066;2022-07-26T05:39:04;8.82;;;5.68;;
21820;SDS011;11073;48.586;12.066;2022-07-26T05:41:36;7.63;;;5.47;;
21820;SDS011;11073;48.586;12.066;2022-07-26T05:44:05;8.50;;;5.03;;
21820;SDS011;11073;48.586;12.066;2022-07-26T05:46:36;8.98;;;5.43;;
21820;SDS011;11073;48.586;12.066;2022-07-26T05:49:07;8.27;;;4.80;;
21820;SDS011;11073;48.586;12.066;2022-07-26T05:51:36;7.32;;;5.30;;
21820;SDS011;11073;48.586;12.066;2022-07-26T05:54:04;7.47;;;5.07;;
21820;SDS011;11073;48.586;12.066;2022-07-26T05:56:33;6.78;;;5.45;;
21820;SDS011;11073;48.586;12.066;2022-07-26T05:59:02;6.68;;;5.07;;
21820;SDS011;11073;48.586;12.066;2022-07-26T06:01:31;10.75;;;5.07;;
21820;SDS011;11073;48.586;12.066;2022-07-26T06:04:01;5.85;;;5.25;;
21820;SDS011;11073;48.586;12.066;2022-07-26T06:06:32;5.82;;;4.68;;
21820;SDS011;11073;48.586;12.066;2022-07-26T06:09:01;7.65;;;4.93;;
21820;SDS011;11073;48.586;12.066;2022-07-26T06:11:30;9.57;;;4.90;;
21820;SDS011;11073;48.586;12.066;2022-07-26T06:13:58;6.07;;;4.53;;
21820;SDS011;11073;48.586;12.066;2022-07-26T06:16:26;12.52;;;5.45;;
21820;SDS011;11073;48.586;12.066;2022-07-26T06:18:55;7.07;;;4.43;;
21820;SDS011;11073;48.586;12.066;2022-07-26T06:21:23;8.90;;;4.97;;
21820;SDS011;11073;48.586;12.066;2022-07-26T06:23:53;10.60;;;5.15;;
21820;SDS011;11073;48.586;12.066;2022-07-26T06:26:22;8.70;;;4.53;;
21820;SDS011;11073;48.586;12.066;2022-07-26T06:28:50;5.78;;;4.10;;
21820;SDS011;11073;48.586;12.066;2022-07-26T06:31:19;4.97;;;4.03;;
21820;SDS011;11073;48.586;12.066;2022-07-26T06:33:48;7.18;;;4.63;;
21820;SDS011;11073;48.586;12.066;2022-07-26T06:36:17;6.50;;;3.90;;
21820;SDS011;11073;48.586;12.066;2022-07-26T06:38:46;6.90;;;4.30;;
21820;SDS011;11073;48.586;12.066;2022-07-26T06:41:16;5.15;;;3.70;;
21820;SDS011;11073;48.586;12.066;2022-07-26T06:43:45;6.22;;;3.67;;
21820;SDS011;11073;48.586;12.066;2022-07-26T06:46:13;8.38;;;4.38;;
21820;SDS011;11073;48.586;12.066;2022-07-26T06:48:43;6.40;;;4.15;;
21820;SDS011;11073;48.586;12.066;2022-07-26T06:51:19;6.28;;;3.90;;
21820;SDS011;11073;48.586;12.066;2022-07-26T06:53:48;6.80;;;3.85;;
21820;SDS011;11073;48.586;12.066;2022-07-26T06:56:18;7.57;;;4.00;;
21820;SDS011;11073;48.586;12.066;2022-07-26T06:58:50;7.78;;;4.03;;
21820;SDS011;11073;48.586;12.066;2022-07-26T07:01:20;5.93;;;4.40;;
21820;SDS011;11073;48.586;12.066;2022-07-26T07:04:09;8.13;;;4.25;;
21820;SDS011;11073;48.586;12.066;2022-07-26T07:06:38;5.85;;;3.78;;
21820;SDS011;11073;48.586;12.066;2022-07-26T07:09:07;5.35;;;4.30;;
21820;SDS011;11073;48.586;12.066;2022-07-26T07:11:40;7.15;;;4.90;;
21820;SDS011;11073;48.586;12.066;2022-07-26T07:14:10;8.13;;;3.92;;
21820;SDS011;11073;48.586;12.066;2022-07-26T07:16:38;5.90;;;4.00;;
21820;SDS011;11073;48.586;12.066;2022-07-26T07:19:08;7.30;;;4.10;;
21820;SDS011;11073;48.586;12.066;2022-07-26T07:21:36;7.43;;;4.30;;
21820;SDS011;11073;48.586;12.066;2022-07-26T07:24:05;7.35;;;4.32;;
21820;SDS011;11073;48.586;12.066;2022-07-26T07:26:35;4.88;;;4.05;;
21820;SDS011;11073;48.586;12.066;2022-07-26T07:29:05;5.70;;;4.00;;
21820;SDS011;11073;48.586;12.066;2022-07-26T07:31:36;5.07;;;3.80;;
21820;SDS011;11073;48.586;12.066;2022-07-26T07:34:15;5.60;;;3.97;;
21820;SDS011;11073;48.586;12.066;2022-07-26T07:36:49;6.63;;;4.22;;
21820;SDS011;11073;48.586;12.066;2022-07-26T07:39:18;5.72;;;4.20;;
21820;SDS011;11073;48.586;12.066;2022-07-26T07:41:47;5.75;;;4.35;;
21820;SDS011;11073;48.586;12.066;2022-07-26T07:44:17;5.97;;;4.55;;
21820;SDS011;11073;48.586;12.066;2022-07-26T07:46:46;6.90;;;4.15;;
21820;SDS011;11073;48.586;12.066;2022-07-26T07:49:14;5.43;;;4.93;;
21820;SDS011;11073;48.586;12.066;2022-07-26T07:51:43;6.00;;;4.18;;
21820;SDS011;11073;48.586;12.066;2022-07-26T07:54:12;6.22;;;4.15;;
21820;SDS011;11073;48.586;12.066;2022-07-26T07:56:42;7.38;;;4.95;;
21820;SDS011;11073;48.586;12.066;2022-07-26T07:59:11;8.30;;;4.10;;
21820;SDS011;11073;48.586;12.066;2022-07-26T08:01:40;8.65;;;4.18;;
21820;SDS011;11073;48.586;12.066;2022-07-26T08:04:11;5.05;;;3.92;;
21820;SDS011;11073;48.586;12.066;2022-07-26T08:06:40;5.50;;;4.47;;
21820;SDS011;11073;48.586;12.066;2022-07-26T08:09:18;6.40;;;4.45;;
21820;SDS011;11073;48.586;12.066;2022-07-26T08:11:47;7.05;;;4.25;;
21820;SDS011;11073;48.586;12.066;2022-07-26T08:14:17;8.02;;;4.30;;
21820;SDS011;11073;48.586;12.066;2022-07-26T08:16:47;6.40;;;4.07;;
21820;SDS011;11073;48.586;12.066;2022-07-26T08:19:16;5.47;;;3.78;;
21820;SDS011;11073;48.586;12.066;2022-07-26T08:21:47;8.27;;;3.88;;
21820;SDS011;11073;48.586;12.066;2022-07-26T08:24:16;4.35;;;3.95;;
21820;SDS011;11073;48.586;12.066;2022-07-26T08:26:45;7.07;;;4.10;;
21820;SDS011;11073;48.586;12.066;2022-07-26T08:29:13;8.25;;;4.28;;
21820;SDS011;11073;48.586;12.066;2022-07-26T08:31:43;3.85;;;3.22;;
21820;SDS011;11073;48.586;12.066;2022-07-26T08:34:13;4.35;;;3.85;;
21820;SDS011;11073;48.586;12.066;2022-07-26T08:36:43;5.30;;;3.70;;
21820;SDS011;11073;48.586;12.066;2022-07-26T08:39:32;8.55;;;3.55;;
21820;SDS011;11073;48.586;12.066;2022-07-26T08:42:01;7.47;;;4.03;;
21820;SDS011;11073;48.586;12.066;2022-07-26T08:44:30;7.25;;;4.00;;
21820;SDS011;11073;48.586;12.066;2022-07-26T08:46:59;6.43;;;3.45;;
21820;SDS011;11073;48.586;12.066;2022-07-26T08:49:29;7.78;;;4.10;;
21820;SDS011;11073;48.586;12.066;2022-07-26T08:51:58;7.55;;;4.30;;
21820;SDS011;11073;48.586;12.066;2022-07-26T08:54:27;7.57;;;3.80;;
21820;SDS011;11073;48.586;12.066;2022-07-26T08:56:56;6.05;;;3.80;;
21820;SDS011;11073;48.586;12.066;2022-07-26T08:59:27;6.93;;;3.75;;
21820;SDS011;11073;48.586;12.066;2022-07-26T09:01:57;7.95;;;4.18;;
21820;SDS011;11073;48.586;12.066;2022-07-26T09:04:27;7.15;;;4.30;;
21820;SDS011;11073;48.586;12.066;2022-07-26T09:07:03;6.97;;;3.92;;
21820;SDS011;11073;48.586;12.066;2022-07-26T09:09:34;5.47;;;3.60;;
21820;SDS011;11073;48.586;12.066;2022-07-26T09:12:12;6.95;;;3.95;;
21820;SDS011;11073;48.586;12.066;2022-07-26T09:14:42;6.30;;;3.30;;
21820;SDS011;11073;48.586;12.066;2022-07-26T09:17:13;4.15;;;3.67;;
21820;SDS011;11073;48.586;12.066;2022-07-26T09:19:44;6.07;;;3.67;;
21820;SDS011;11073;48.586;12.066;2022-07-26T09:22:29;5.68;;;3.80;;
21820;SDS011;11073;48.586;12.066;2022-07-26T09:24:58;4.57;;;3.53;;
21820;SDS011;11073;48.586;12.066;2022-07-26T09:27:32;5.35;;;3.30;;
21820;SDS011;11073;48.586;12.066;2022-07-26T09:30:04;3.95;;;3.17;;
21820;SDS011;11073;48.586;12.066;2022-07-26T09:32:34;5.80;;;2.85;;
21820;SDS011;11073;48.586;12.066;2022-07-26T09:35:11;5.80;;;2.65;;
21820;SDS011;11073;48.586;12.066;2022-07-26T09:38:11;3.83;;;3.08;;
21820;SDS011;11073;48.586;12.066;2022-07-26T09:40:40;4.80;;;2.65;;
21820;SDS011;11073;48.586;12.066;2022-07-26T09:43:18;5.57;;;2.70;;
21820;SDS011;11073;48.586;12.066;2022-07-26T09:46:03;2.92;;;2.35;;
21820;SDS011;11073;48.586;12.066;2022-07-26T09:48:34;5.65;;;2.90;;
21820;SDS011;11073;48.586;12.066;2022-07-26T09:51:37;5.10;;;2.20;;
21820;SDS011;11073;48.586;12.066;2022-07-26T09:54:07;3.72;;;2.50;;
21820;SDS011;11073;48.586;12.066;2022-07-26T09:56:44;4.25;;;2.08;;
21820;SDS011;11073;48.586;12.066;2022-07-26T09:59:15;4.60;;;2.33;;
21820;SDS011;11073;48.586;12.066;2022-07-26T10:01:45;4.40;;;2.45;;
21820;SDS011;11073;48.586;12.066;2022-07-26T10:04:16;2.80;;;2.30;;
21820;SDS011;11073;48.586;12.066;2022-07-26T10:06:46;3.60;;;2.63;;
21820;SDS011;11073;48.586;12.066;2022-07-26T10:09:14;4.30;;;2.15;;
21820;SDS011;11073;48.586;12.066;2022-07-26T10:11:55;4.30;;;2.28;;
21820;SDS011;11073;48.586;12.066;2022-07-26T10:14:32;3.17;;;2.33;;
21820;SDS011;11073;48.586;12.066;2022-07-26T10:23:34;2.90;;;1.95;;
21820;SDS011;11073;48.586;12.066;2022-07-26T10:26:05;5.18;;;2.20;;
21820;SDS011;11073;48.586;12.066;2022-07-26T10:28:36;3.63;;;2.42;;
21820;SDS011;11073;48.586;12.066;2022-07-26T10:34:05;4.97;;;1.95;;
21820;SDS011;11073;48.586;12.066;2022-07-26T10:36:35;3.17;;;1.58;;
21820;SDS011;11073;48.586;12.066;2022-07-26T10:39:11;5.65;;;2.47;;
21820;SDS011;11073;48.586;12.066;2022-07-26T10:41:42;3.17;;;1.95;;
21820;SDS011;11073;48.586;12.066;2022-07-26T10:44:19;4.88;;;2.10;;
21820;SDS011;11073;48.586;12.066;2022-07-26T10:46:53;7.15;;;2.15;;
21820;SDS011;11073;48.586;12.066;2022-07-26T10:49:30;3.90;;;1.77;;
21820;SDS011;11073;48.586;12.066;2022-07-26T10:52:08;3.60;;;1.60;;
21820;SDS011;11073;48.586;12.066;2022-07-26T10:57:44;3.42;;;1.63;;
21820;SDS011;11073;48.586;12.066;2022-07-26T11:00:15;6.07;;;1.60;;
21820;SDS011;11073;48.586;12.066;2022-07-26T11:02:51;2.70;;;1.50;;
21820;SDS011;11073;48.586;12.066;2022-07-26T11:05:22;3.38;;;1.90;;
21820;SDS011;11073;48.586;12.066;2022-07-26T11:07:59;4.22;;;1.80;;
21820;SDS011;11073;48.586;12.066;2022-07-26T11:10:33;6.88;;;1.90;;
21820;SDS011;11073;48.586;12.066;2022-07-26T11:13:09;3.28;;;1.75;;
21820;SDS011;11073;48.586;12.066;2022-07-26T11:15:50;2.97;;;1.65;;
21820;SDS011;11073;48.586;12.066;2022-07-26T11:18:26;4.50;;;1.80;;
21820;SDS011;11073;48.586;12.066;2022-07-26T11:21:06;1.88;;;1.50;;
21820;SDS011;11073;48.586;12.066;2022-07-26T11:23:37;2.28;;;1.50;;
21820;SDS011;11073;48.586;12.066;2022-07-26T11:26:13;5.30;;;1.45;;
21820;SDS011;11073;48.586;12.066;2022-07-26T11:28:45;3.17;;;1.60;;
21820;SDS011;11073;48.586;12.066;2022-07-26T11:31:19;2.60;;;1.10;;
21820;SDS011;11073;48.586;12.066;2022-07-26T11:34:15;2.13;;;1.25;;
21820;SDS011;11073;48.586;12.066;2022-07-26T11:36:45;2.65;;;1.48;;
21820;SDS011;11073;48.586;12.066;2022-07-26T11:39:15;3.92;;;1.70;;
21820;SDS011;11073;48.586;12.066;2022-07-26T11:41:51;3.72;;;1.60;;
21820;SDS011;11073;48.586;12.066;2022-07-26T11:44:24;4.43;;;1.42;;
21820;SDS011;11073;48.586;12.066;2022-07-26T11:46:54;3.17;;;1.60;;
21820;SDS011;11073;48.586;12.066;2022-07-26T11:49:25;4.88;;;1.60;;
21820;SDS011;11073;48.586;12.066;2022-07-26T11:52:14;2.88;;;1.40;;
21820;SDS011;11073;48.586;12.066;2022-07-26T11:54:52;2.65;;;1.73;;
21820;SDS011;11073;48.586;12.066;2022-07-26T11:57:26;5.10;;;1.67;;
21820;SDS011;11073;48.586;12.066;2022-07-26T11:59:56;4.13;;;1.83;;
21820;SDS011;11073;48.586;12.066;2022-07-26T12:02:25;2.35;;;1.45;;
21820;SDS011;11073;48.586;12.066;2022-07-26T12:05:10;3.50;;;1.67;;
21820;SDS011;11073;48.586;12.066;2022-07-26T12:07:52;2.55;;;1.60;;
21820;SDS011;11073;48.586;12.066;2022-07-26T12:10:22;1.75;;;1.40;;
21820;SDS011;11073;48.586;12.066;2022-07-26T12:13:06;5.18;;;1.65;;
21820;SDS011;11073;48.586;12.066;2022-07-26T12:15:45;4.90;;;1.80;;
21820;SDS011;11073;48.586;12.066;2022-07-26T12:18:24;3.10;;;1.70;;
21820;SDS011;11073;48.586;12.066;2022-07-26T12:20:58;2.92;;;1.70;;
21820;SDS011;11073;48.586;12.066;2022-07-26T12:23:42;5.95;;;2.08;;
21820;SDS011;11073;48.586;12.066;2022-07-26T12:26:21;4.63;;;1.60;;
21820;SDS011;11073;48.586;12.066;2022-07-26T12:28:53;4.03;;;1.70;;
21820;SDS011;11073;48.586;12.066;2022-07-26T12:31:24;3.28;;;1.80;;
21820;SDS011;11073;48.586;12.066;2022-07-26T12:33:54;3.22;;;1.80;;
21820;SDS011;11073;48.586;12.066;2022-07-26T12:36:23;2.75;;;1.60;;
21820;SDS011;11073;48.586;12.066;2022-07-26T12:38:56;2.78;;;1.50;;
21820;SDS011;11073;48.586;12.066;2022-07-26T12:41:30;4.60;;;1.70;;
21820;SDS011;11073;48.586;12.066;2022-07-26T12:44:01;2.92;;;1.60;;
21820;SDS011;11073;48.586;12.066;2022-07-26T12:46:31;2.35;;;1.70;;
21820;SDS011;11073;48.586;12.066;2022-07-26T12:49:01;4.25;;;1.90;;
21820;SDS011;11073;48.586;12.066;2022-07-26T12:51:31;2.45;;;1.70;;
21820;SDS011;11073;48.586;12.066;2022-07-26T12:54:00;4.68;;;1.60;;
21820;SDS011;11073;48.586;12.066;2022-07-26T12:56:29;6.38;;;1.70;;
21820;SDS011;11073;48.586;12.066;2022-07-26T12:58:58;4.00;;;2.03;;
21820;SDS011;11073;48.586;12.066;2022-07-26T13:01:30;2.03;;;1.55;;
21820;SDS011;11073;48.586;12.066;2022-07-26T13:03:59;2.28;;;1.88;;
21820;SDS011;11073;48.586;12.066;2022-07-26T13:06:28;3.20;;;1.88;;
21820;SDS011;11073;48.586;12.066;2022-07-26T13:08:59;3.78;;;2.30;;
21820;SDS011;11073;48.586;12.066;2022-07-26T13:11:28;3.83;;;2.47;;
21820;SDS011;11073;48.586;12.066;2022-07-26T13:13:56;4.72;;;2.50;;
21820;SDS011;11073;48.586;12.066;2022-07-26T13:16:25;4.43;;;2.20;;
21820;SDS011;11073;48.586;12.066;2022-07-26T13:18:55;3.60;;;2.78;;
21820;SDS011;11073;48.586;12.066;2022-07-26T13:21:24;3.63;;;2.40;;
21820;SDS011;11073;48.586;12.066;2022-07-26T13:23:59;4.43;;;2.65;;
21820;SDS011;11073;48.586;12.066;2022-07-26T13:26:28;3.15;;;2.42;;
21820;SDS011;11073;48.586;12.066;2022-07-26T13:28:57;3.72;;;2.13;;
21820;SDS011;11073;48.586;12.066;2022-07-26T13:31:26;4.95;;;2.38;;
21820;SDS011;11073;48.586;12.066;2022-07-26T13:33:56;5.65;;;2.75;;
21820;SDS011;11073;48.586;12.066;2022-07-26T13:36:25;6.68;;;2.13;;
21820;SDS011;11073;48.586;12.066;2022-07-26T13:38:54;3.85;;;2.50;;
21820;SDS011;11073;48.586;12.066;2022-07-26T13:41:23;5.13;;;2.35;;
21820;SDS011;11073;48.586;12.066;2022-07-26T13:43:52;2.92;;;2.00;;
21820;SDS011;11073;48.586;12.066;2022-07-26T13:46:22;3.22;;;2.13;;
21820;SDS011;11073;48.586;12.066;2022-07-26T13:49:01;3.47;;;2.17;;
21820;SDS011;11073;48.586;12.066;2022-07-26T13:51:32;3.88;;;2.08;;
21820;SDS011;11073;48.586;12.066;2022-07-26T13:54:19;3.97;;;2.20;;
21820;SDS011;11073;48.586;12.066;2022-07-26T13:56:49;2.53;;;2.10;;
21820;SDS011;11073;48.586;12.066;2022-07-26T13:59:18;4.38;;;2.00;;
21820;SDS011;11073;48.586;12.066;2022-07-26T14:01:47;3.70;;;2.08;;
21820;SDS011;11073;48.586;12.066;2022-07-26T14:04:17;3.88;;;2.05;;
21820;SDS011;11073;48.586;12.066;2022-07-26T14:06:46;2.83;;;2.22;;
21820;SDS011;11073;48.586;12.066;2022-07-26T14:09:16;3.78;;;1.80;;
21820;SDS011;11073;48.586;12.066;2022-07-26T14:11:45;5.38;;;2.08;;
21820;SDS011;11073;48.586;12.066;2022-07-26T14:14:14;3.33;;;1.92;;
21820;SDS011;11073;48.586;12.066;2022-07-26T14:16:43;4.35;;;1.90;;
21820;SDS011;11073;48.586;12.066;2022-07-26T14:19:15;3.40;;;1.73;;
21820;SDS011;11073;48.586;12.066;2022-07-26T14:21:45;4.45;;;1.85;;
21820;SDS011;11073;48.586;12.066;2022-07-26T14:24:26;2.85;;;1.65;;
21820;SDS011;11073;48.586;12.066;2022-07-26T14:26:56;2.58;;;2.08;;
21820;SDS011;11073;48.586;12.066;2022-07-26T14:29:28;4.72;;;2.00;;
21820;SDS011;11073;48.586;12.066;2022-07-26T14:31:57;2.88;;;1.75;;
21820;SDS011;11073;48.586;12.066;2022-07-26T14:34:26;2.70;;;2.03;;
21820;SDS011;11073;48.586;12.066;2022-07-26T14:36:56;4.85;;;2.28;;
21820;SDS011;11073;48.586;12.066;2022-07-26T14:39:25;2.78;;;2.13;;
21820;SDS011;11073;48.586;12.066;2022-07-26T14:41:54;3.10;;;2.08;;
21820;SDS011;11073;48.586;12.066;2022-07-26T14:44:22;3.75;;;2.05;;
21820;SDS011;11073;48.586;12.066;2022-07-26T14:46:53;3.95;;;2.40;;
21820;SDS011;11073;48.586;12.066;2022-07-26T14:49:21;3.67;;;2.00;;
21820;SDS011;11073;48.586;12.066;2022-07-26T14:51:54;5.38;;;2.30;;
21820;SDS011;11073;48.586;12.066;2022-07-26T14:54:24;4.30;;;2.20;;
21820;SDS011;11073;48.586;12.066;2022-07-26T14:56:52;4.30;;;1.95;;
21820;SDS011;11073;48.586;12.066;2022-07-26T14:59:21;2.95;;;2.05;;
21820;SDS011;11073;48.586;12.066;2022-07-26T15:01:50;2.33;;;1.88;;
21820;SDS011;11073;48.586;12.066;2022-07-26T15:04:19;5.07;;;1.88;;
21820;SDS011;11073;48.586;12.066;2022-07-26T15:06:47;2.67;;;2.28;;
21820;SDS011;11073;48.586;12.066;2022-07-26T15:09:16;2.78;;;2.13;;